Ana Sayfa
METAR-TAF:

METAR-TAF

Havaalanları :

Dakar, Senegal

Enlem: 14-44N, Boylam: 017-30W, yükseklik: 27 m

Güncel hava durumu gözlemi

Rapor saat 13:00 UTC de 1 saat ve 22 dakika önce yapıldı.
Rüzgar kuzeydan 8 kt
Sıcaklık 29°C
Nem 74%
Basınç 1010 hPa
Görüş mesafesi 10 km veya daha fazla
1500 m altında bulut yok ve kümülonimbus yok

METAR: GOOY 191300Z 36008KT CAVOK 29/24 Q1010

Saat: 14:22 (14:22 UTC)

Tahmin

Rapor saat 11:30 UTC de 2 saat ve 52 dakika önce yapıldı.
Ayın 19'si saat 12 UTC'den ayın 20'si saat 18 UTC'ye kadar geçerli Tahmin
Rüzgar kuzeydan 10 kt
Görüş mesafesi 10 km veya daha fazla
1500 m altında bulut yok ve kümülonimbus yok

TAF: GOOY 191130Z 1912/2018 01010KT CAVOK

4.000'den fazla havaalanı için hava durumu gözlemleri ve tahminleri (METAR ve TAF raporları).

Kullanılabilir istasyonlar harita üzerinde sarı ve kırmızı noktalarla gösterilir.

İstasyonun adını görmek için fareyi noktanın üzerinde gezdirin.

Sonrasında hava gözlem ve tahminlerini görmek için tıklayın.

Haritayı değiştirmek için: yaklaştırmak için siyah artı işaretli yeşil düğmeye ve uzaklaştırmak için de eksi işaretli düğmeye hızla tıklayın; bitişik haritalar için yeşil okları kullanın.


METAR-TAF: